Time;durP1;ratioP1;P1;durP2;ratioP2;P2;SDS_P1;SDS_P2;PMS_P1;PMS_P2;Temp;Humidity;BMP_temperature;BMP_pressure;BME280_temperature;BME280_humidity;BME280_pressure;Samples;Min_cycle;Max_cycle;Signal;HPM_P1;HPM_P2
2022/04/02 00:02:05;;;;;;;10.20;2.30;;;;;;;-141.50;100.00;63355.56;5088054;28;20139;-78
2022/04/02 00:04:31;;;;;;;10.55;2.17;;;;;;;-141.50;100.00;63355.56;5088961;28;20131;-75
2022/04/02 00:06:58;;;;;;;10.38;2.38;;;;;;;-141.50;100.00;63355.56;5088201;28;20051;-77
2022/04/02 00:09:25;;;;;;;11.85;2.15;;;;;;;-141.50;100.00;63355.56;5088369;28;20479;-74
2022/04/02 00:11:51;;;;;;;14.10;2.38;;;;;;;-141.50;100.00;63355.56;5097001;28;20130;-76
2022/04/02 00:14:18;;;;;;;11.85;3.03;;;;;;;-141.50;100.00;63355.56;5107160;28;20060;-77
2022/04/02 00:16:45;;;;;;;9.13;2.33;;;;;;;-141.50;100.00;63355.56;5095050;28;20133;-76
2022/04/02 00:19:14;;;;;;;13.98;2.88;;;;;;;-141.50;100.00;63355.56;5087411;28;20082;-77
2022/04/02 00:21:40;;;;;;;9.27;2.40;;;;;;;-141.50;100.00;63355.56;5086333;28;20040;-77
2022/04/02 00:24:07;;;;;;;6.10;2.22;;;;;;;-141.50;100.00;63355.56;5087474;28;20060;-76
2022/04/02 00:26:34;;;;;;;12.55;2.38;;;;;;;-141.50;100.00;63355.56;5085616;28;20076;-75
2022/04/02 00:29:01;;;;;;;9.80;2.40;;;;;;;-141.50;100.00;63355.56;5087627;28;20111;-76
2022/04/02 00:31:29;;;;;;;11.18;3.20;;;;;;;-141.50;100.00;63355.56;5084093;28;20151;-75
2022/04/02 00:33:56;;;;;;;13.02;2.40;;;;;;;-141.50;100.00;63355.56;5095930;28;20055;-76
2022/04/02 00:36:23;;;;;;;11.07;2.58;;;;;;;-141.50;100.00;63355.56;5098499;28;20135;-76
2022/04/02 00:38:50;;;;;;;15.07;2.40;;;;;;;-141.50;100.00;63355.56;5102132;28;20071;-76
2022/04/02 00:41:17;;;;;;;11.05;2.30;;;;;;;-141.50;100.00;63355.56;5113113;28;20062;-77
2022/04/02 00:44:06;;;;;;;10.55;2.70;;;;;;;-141.50;100.00;63355.56;5107433;28;20349;-73
2022/04/02 00:46:32;;;;;;;10.98;2.45;;;;;;;-141.50;100.00;63355.56;5090617;28;20181;-76
2022/04/02 00:48:59;;;;;;;22.13;3.10;;;;;;;-141.50;100.00;63355.56;5090540;28;20101;-76
2022/04/02 00:51:26;;;;;;;9.35;2.08;;;;;;;-141.50;100.00;63355.56;5089501;28;20166;-75
2022/04/02 00:53:52;;;;;;;13.43;2.55;;;;;;;-141.50;100.00;63355.56;5090637;28;20084;-77
2022/04/02 00:56:20;;;;;;;9.82;2.58;;;;;;;-141.50;100.00;63355.56;5090318;28;20044;-76
2022/04/02 00:58:47;;;;;;;8.77;2.30;;;;;;;-141.50;100.00;63355.56;5090496;28;20109;-75
2022/04/02 01:01:14;;;;;;;15.60;2.25;;;;;;;-141.50;100.00;63355.56;5089566;28;20401;-76
2022/04/02 01:03:41;;;;;;;12.55;3.25;;;;;;;-141.50;100.00;63355.56;5089130;28;20048;-77
2022/04/02 01:06:09;;;;;;;17.13;2.53;;;;;;;-141.50;100.00;63355.56;5090101;28;20097;-77
2022/04/02 01:08:37;;;;;;;13.80;2.42;;;;;;;-141.50;100.00;63355.56;5090782;28;20111;-77
2022/04/02 01:11:04;;;;;;;15.95;2.42;;;;;;;-141.50;100.00;63355.56;5098811;28;20082;-75
2022/04/02 01:13:32;;;;;;;11.20;2.28;;;;;;;-141.50;100.00;63355.56;5106020;28;20071;-76
2022/04/02 01:15:58;;;;;;;10.02;2.95;;;;;;;-141.50;100.00;63355.56;5109379;28;20567;-76
2022/04/02 01:18:25;;;;;;;12.00;2.50;;;;;;;-141.50;100.00;63355.56;5089523;28;20081;-76
2022/04/02 01:20:53;;;;;;;8.82;3.30;;;;;;;-141.50;100.00;63355.56;5088860;28;20172;-76
2022/04/02 01:23:28;;;;;;;5.65;2.50;;;;;;;-141.50;100.00;63355.56;5089747;28;20048;-76
2022/04/02 01:25:57;;;;;;;7.10;2.03;;;;;;;-141.50;100.00;63355.56;5089663;28;20044;-76
2022/04/02 01:28:24;;;;;;;13.82;2.35;;;;;;;-141.50;100.00;63355.56;5089648;28;20056;-77
2022/04/02 01:30:51;;;;;;;11.38;2.35;;;;;;;-141.50;100.00;63355.56;5089541;28;20462;-77
2022/04/02 01:33:21;;;;;;;11.57;2.22;;;;;;;-141.50;100.00;63355.56;5090192;28;20051;-76
2022/04/02 01:35:57;;;;;;;14.45;2.40;;;;;;;-141.50;100.00;63355.56;5088016;28;20142;-77
2022/04/02 01:38:24;;;;;;;8.75;2.40;;;;;;;-141.50;100.00;63355.56;5089662;28;20484;-75
2022/04/02 01:40:51;;;;;;;14.80;2.63;;;;;;;-141.50;100.00;63355.56;5089519;28;20078;-76
2022/04/02 01:43:17;;;;;;;16.88;2.90;;;;;;;-141.50;100.00;63355.56;5089388;28;20110;-74
2022/04/02 01:45:44;;;;;;;8.68;2.60;;;;;;;-141.50;100.00;63355.56;5090458;28;20052;-75
2022/04/02 01:48:11;;;;;;;8.90;2.47;;;;;;;-141.50;100.00;63355.56;5089394;28;20071;-76
2022/04/02 01:50:37;;;;;;;7.97;2.20;;;;;;;-141.50;100.00;63355.56;5088865;28;20109;-76
2022/04/02 01:53:04;;;;;;;10.27;2.33;;;;;;;-141.50;100.00;63355.56;5088766;28;20086;-75
2022/04/02 01:55:30;;;;;;;12.48;2.75;;;;;;;-141.50;100.00;63355.56;5070526;28;20109;-77
2022/04/02 01:57:57;;;;;;;9.55;2.45;;;;;;;-141.50;100.00;63355.56;5086181;28;20408;-77
2022/04/02 02:00:23;;;;;;;11.43;2.58;;;;;;;-141.50;100.00;63355.56;5087187;28;20101;-76
2022/04/02 02:02:50;;;;;;;18.63;2.85;;;;;;;-141.50;100.00;63355.56;5088350;28;20052;-75
2022/04/02 02:05:17;;;;;;;18.05;3.10;;;;;;;-141.50;100.00;63355.56;5089357;28;20056;-75
2022/04/02 02:07:50;;;;;;;15.00;2.83;;;;;;;-141.50;100.00;63355.56;5090435;28;20056;-77
2022/04/02 02:10:18;;;;;;;7.72;2.75;;;;;;;-141.50;100.00;63355.56;5089026;28;20139;-76
2022/04/02 02:12:46;;;;;;;15.52;2.58;;;;;;;-141.50;100.00;63355.56;5097428;28;20117;-76
2022/04/02 02:15:16;;;;;;;8.52;2.40;;;;;;;-141.50;100.00;63355.56;5072388;28;20473;-76
2022/04/02 02:17:45;;;;;;;9.73;2.58;;;;;;;-141.50;100.00;63355.56;5089661;28;20048;-75
2022/04/02 02:20:13;;;;;;;6.95;2.25;;;;;;;-141.50;100.00;63355.56;5088705;28;20245;-74
2022/04/02 02:22:41;;;;;;;8.25;2.65;;;;;;;-141.50;100.00;63355.56;5088518;28;20079;-76
2022/04/02 02:25:09;;;;;;;6.50;2.65;;;;;;;-141.50;100.00;63355.56;5087228;28;20052;-75
2022/04/02 02:27:36;;;;;;;7.07;2.72;;;;;;;-141.50;100.00;63355.56;5088478;28;20389;-76
2022/04/02 02:30:03;;;;;;;7.63;2.47;;;;;;;-141.50;100.00;63355.56;5088657;28;20569;-75
2022/04/02 02:32:35;;;;;;;8.10;2.70;;;;;;;-141.50;100.00;63355.56;5070312;28;20113;-76
2022/04/02 02:37:47;;;;;;;8.75;2.80;;;;;;;-141.50;100.00;63355.56;5088896;28;20044;-75
2022/04/02 02:40:14;;;;;;;10.15;2.95;;;;;;;-141.50;100.00;63355.56;5099284;28;20059;-77
2022/04/02 02:42:41;;;;;;;7.68;2.85;;;;;;;-141.50;100.00;63355.56;5080725;28;20097;-75
2022/04/02 02:45:09;;;;;;;8.77;3.22;;;;;;;-141.50;100.00;63355.56;5070782;28;20051;-76
2022/04/02 02:47:38;;;;;;;8.35;2.97;;;;;;;-141.50;100.00;63355.56;5088992;28;20094;-76
2022/04/02 02:50:06;;;;;;;9.45;2.70;;;;;;;-141.50;100.00;63355.56;5071167;28;20048;-78
2022/04/02 02:52:32;;;;;;;11.45;2.95;;;;;;;-141.50;100.00;63355.56;5088756;28;20083;-76
2022/04/02 02:54:59;;;;;;;7.63;2.80;;;;;;;-141.50;100.00;63355.56;5089025;28;20142;-75
2022/04/02 02:57:26;;;;;;;7.43;2.28;;;;;;;-141.50;100.00;63355.56;5088635;28;20593;-75
2022/04/02 02:59:52;;;;;;;8.18;2.70;;;;;;;-141.50;100.00;63355.56;5070938;28;20508;-75
2022/04/02 03:02:19;;;;;;;8.93;2.92;;;;;;;-141.50;100.00;63355.56;5070553;28;20044;-76
2022/04/02 03:04:45;;;;;;;10.77;2.60;;;;;;;-141.50;100.00;63355.56;5088783;28;20052;-76
2022/04/02 03:07:12;;;;;;;6.43;2.67;;;;;;;-141.50;100.00;63355.56;5089591;28;20052;-77
2022/04/02 03:09:38;;;;;;;8.02;3.00;;;;;;;-141.50;100.00;63355.56;5096002;28;20097;-75
2022/04/02 03:12:06;;;;;;;7.80;2.47;;;;;;;-141.50;100.00;63355.56;5105004;28;20075;-77
2022/04/02 03:14:33;;;;;;;7.10;2.60;;;;;;;-141.50;100.00;63355.56;5112052;28;20047;-75
2022/04/02 03:16:59;;;;;;;11.65;2.85;;;;;;;-141.50;100.00;63355.56;5114977;28;20048;-75
2022/04/02 03:19:26;;;;;;;10.18;2.80;;;;;;;-141.50;100.00;63355.56;5112776;28;20124;-75
2022/04/02 03:21:52;;;;;;;4.97;2.35;;;;;;;-141.50;100.00;63355.56;5115513;28;20633;-75
2022/04/02 03:24:19;;;;;;;9.35;3.05;;;;;;;-141.50;100.00;63355.56;5110706;28;20072;-75
2022/04/02 03:26:46;;;;;;;10.57;2.90;;;;;;;-141.50;100.00;63355.56;5093213;28;20051;-78
2022/04/02 03:29:12;;;;;;;7.65;2.63;;;;;;;-141.50;100.00;63355.56;5110560;28;20090;-76
2022/04/02 03:31:39;;;;;;;12.05;2.80;;;;;;;-141.50;100.00;63355.56;5108492;28;20104;-76
2022/04/02 03:34:05;;;;;;;7.85;3.05;;;;;;;-141.50;100.00;63355.56;5112348;28;20720;-76
2022/04/02 03:36:32;;;;;;;11.13;3.13;;;;;;;-141.50;100.00;63355.56;5112892;28;20096;-76
2022/04/02 03:38:58;;;;;;;8.88;2.60;;;;;;;-141.50;100.00;63355.56;5112125;28;20134;-75
2022/04/02 03:41:26;;;;;;;8.32;2.90;;;;;;;-141.50;100.00;63355.56;5112567;28;20134;-76
2022/04/02 03:43:53;;;;;;;9.52;2.70;;;;;;;-141.50;100.00;63355.56;5112460;28;20051;-75
2022/04/02 03:49:05;;;;;;;6.95;2.65;;;;;;;-141.50;100.00;63355.56;5112412;28;20063;-77
2022/04/02 03:51:32;;;;;;;8.43;3.10;;;;;;;-141.50;100.00;63355.56;5094012;28;20051;-77
2022/04/02 03:53:59;;;;;;;9.15;3.10;;;;;;;-141.50;100.00;63355.56;5112122;28;20147;-77
2022/04/02 03:56:26;;;;;;;5.57;2.20;;;;;;;-141.50;100.00;63355.56;5112140;28;20047;-77
2022/04/02 03:58:52;;;;;;;14.43;2.67;;;;;;;-141.50;100.00;63355.56;5111803;28;20183;-76
2022/04/02 04:01:19;;;;;;;9.90;2.85;;;;;;;-141.50;100.00;63355.56;5112866;28;20075;-77
2022/04/02 04:03:45;;;;;;;5.97;2.55;;;;;;;-141.50;100.00;63355.56;5132111;28;20040;-76
2022/04/02 04:06:12;;;;;;;8.50;2.45;;;;;;;-141.50;100.00;63355.56;5136388;28;20051;-77
2022/04/02 04:08:40;;;;;;;7.30;2.60;;;;;;;-141.50;100.00;63355.56;5124687;28;20074;-74
2022/04/02 04:11:06;;;;;;;7.18;2.80;;;;;;;-141.50;100.00;63355.56;5105343;28;20048;-76
2022/04/02 04:13:33;;;;;;;10.73;2.50;;;;;;;-141.50;100.00;63355.56;5107588;28;20067;-75
2022/04/02 04:16:01;;;;;;;7.28;2.60;;;;;;;-141.50;100.00;63355.56;5112199;28;20048;-76
2022/04/02 04:18:28;;;;;;;7.80;2.70;;;;;;;-141.50;100.00;63355.56;5112206;28;20063;-75
2022/04/02 04:20:54;;;;;;;6.80;2.33;;;;;;;-141.50;100.00;63355.56;5112147;28;20087;-77
2022/04/02 04:23:22;;;;;;;11.60;2.83;;;;;;;-141.50;100.00;63355.56;5112120;28;20043;-74
2022/04/02 04:25:48;;;;;;;8.52;2.58;;;;;;;-141.50;100.00;63355.56;5111661;28;20517;-78
2022/04/02 04:28:15;;;;;;;7.90;2.83;;;;;;;-141.50;100.00;63355.56;5111515;28;20055;-75
2022/04/02 04:30:41;;;;;;;7.35;2.60;;;;;;;-141.50;100.00;63355.56;5092913;28;20674;-76
2022/04/02 04:33:08;;;;;;;8.52;2.65;;;;;;;-141.50;100.00;63355.56;5111506;28;20125;-77
2022/04/02 04:35:34;;;;;;;7.97;2.53;;;;;;;-141.50;100.00;63355.56;5111841;28;20083;-75
2022/04/02 04:38:01;;;;;;;6.35;2.88;;;;;;;-141.50;100.00;63355.56;5093684;28;20100;-74
2022/04/02 04:40:27;;;;;;;6.57;2.65;;;;;;;-141.50;100.00;63355.56;5110799;28;20573;-76
2022/04/02 04:42:54;;;;;;;8.98;2.63;;;;;;;-141.50;100.00;63355.56;5111185;28;20051;-75
2022/04/02 04:45:21;;;;;;;7.65;2.80;;;;;;;-141.50;100.00;63355.56;5110736;28;20055;-76
2022/04/02 04:47:47;;;;;;;9.07;2.55;;;;;;;-141.50;100.00;63355.56;5111418;28;20097;-76
2022/04/02 04:50:14;;;;;;;10.43;2.60;;;;;;;-141.50;100.00;63355.56;5111051;28;20056;-75
2022/04/02 04:52:40;;;;;;;9.35;2.70;;;;;;;-141.50;100.00;63355.56;5112049;28;20150;-76
2022/04/02 04:55:07;;;;;;;6.50;2.67;;;;;;;-141.50;100.00;63355.56;5098176;28;20048;-76
2022/04/02 04:57:34;;;;;;;6.50;2.60;;;;;;;-141.50;100.00;63355.56;5098095;28;20713;-76
2022/04/02 05:00:00;;;;;;;7.43;2.75;;;;;;;-141.50;100.00;63355.56;5115552;28;20055;-75
2022/04/02 05:02:27;;;;;;;9.57;3.00;;;;;;;-141.50;100.00;63355.56;5077565;28;20040;-75
2022/04/02 05:04:54;;;;;;;7.80;2.80;;;;;;;-141.50;100.00;63355.56;5091606;28;20534;-77
2022/04/02 05:07:44;;;;;;;8.98;2.45;;;;;;;-141.50;100.00;63355.56;5101641;28;20055;-76
2022/04/02 05:10:11;;;;;;;7.15;2.90;;;;;;;-141.50;100.00;63355.56;5109301;28;20055;-75
2022/04/02 05:12:38;;;;;;;9.68;2.70;;;;;;;-141.50;100.00;63355.56;5094728;28;20048;-76
2022/04/02 05:15:08;;;;;;;6.88;2.53;;;;;;;-141.50;100.00;63355.56;5089987;28;20052;-75
2022/04/02 05:17:37;;;;;;;8.70;2.60;;;;;;;-141.50;100.00;63355.56;5089551;28;20489;-75
2022/04/02 05:20:06;;;;;;;6.40;2.55;;;;;;;-141.50;100.00;63355.56;5087868;28;20044;-75
2022/04/02 05:22:33;;;;;;;5.57;2.72;;;;;;;-141.50;100.00;63355.56;5089568;28;20470;-76
2022/04/02 05:25:00;;;;;;;7.82;2.90;;;;;;;-141.50;100.00;63355.56;5090404;28;20048;-77
2022/04/02 05:27:28;;;;;;;12.57;3.20;;;;;;;-141.50;100.00;63355.56;5090845;28;20048;-75
2022/04/02 05:29:54;;;;;;;8.43;2.70;;;;;;;-141.50;100.00;63355.56;5091029;28;20067;-75
2022/04/02 05:32:21;;;;;;;16.30;4.90;;;;;;;-141.50;100.00;63355.56;5091339;28;20060;-75
2022/04/02 05:34:48;;;;;;;9.63;3.20;;;;;;;-141.50;100.00;63355.56;5092195;28;20097;-77
2022/04/02 05:37:14;;;;;;;13.50;5.75;;;;;;;-141.50;100.00;63355.56;5090680;28;20044;-76
2022/04/02 05:39:42;;;;;;;8.13;3.63;;;;;;;-141.50;100.00;63355.56;5089846;28;20571;-77
2022/04/02 05:42:08;;;;;;;12.60;3.92;;;;;;;-141.50;100.00;63355.56;5089667;28;20055;-77
2022/04/02 05:44:35;;;;;;;12.57;3.80;;;;;;;-141.50;100.00;63355.56;5090511;28;20099;-77
2022/04/02 05:47:01;;;;;;;9.93;3.05;;;;;;;-141.50;100.00;63355.56;5090276;28;20083;-75
2022/04/02 05:49:45;;;;;;;7.97;2.85;;;;;;;-141.50;100.00;63355.56;5074365;28;20135;-75
2022/04/02 05:52:12;;;;;;;7.55;3.20;;;;;;;-141.50;100.00;63355.56;5073258;28;20051;-76
2022/04/02 05:54:38;;;;;;;10.48;3.30;;;;;;;-141.50;100.00;63355.56;5089983;28;20125;-76
2022/04/02 05:57:05;;;;;;;7.93;3.17;;;;;;;-141.50;100.00;63355.56;5090220;28;20047;-76
2022/04/02 05:59:32;;;;;;;9.05;3.17;;;;;;;-141.50;100.00;63355.56;5090172;28;20071;-77
2022/04/02 06:01:59;;;;;;;9.73;3.88;;;;;;;-141.50;100.00;63355.56;5089587;28;20529;-76
2022/04/02 06:04:28;;;;;;;8.75;3.40;;;;;;;-141.50;100.00;63355.56;5091081;28;20431;-75
2022/04/02 06:06:54;;;;;;;10.38;3.42;;;;;;;-141.50;100.00;63355.56;5073122;28;20067;-76
2022/04/02 06:09:21;;;;;;;9.52;3.15;;;;;;;-141.50;100.00;63355.56;5090461;28;20104;-77
2022/04/02 06:11:47;;;;;;;9.55;3.15;;;;;;;-141.50;100.00;63355.56;5099632;28;20067;-75
2022/04/02 06:14:14;;;;;;;7.88;3.17;;;;;;;-141.50;100.00;63355.56;5110390;28;20372;-75
2022/04/02 06:16:43;;;;;;;10.00;3.30;;;;;;;-141.50;100.00;63355.56;5110774;28;20106;-76
2022/04/02 06:19:10;;;;;;;9.73;3.42;;;;;;;-141.50;100.00;63355.56;5110640;28;20483;-75
2022/04/02 06:21:36;;;;;;;9.27;3.28;;;;;;;-141.50;100.00;63355.56;5091904;28;20115;-76
2022/04/02 06:24:06;;;;;;;10.85;3.05;;;;;;;-141.50;100.00;63355.56;5090585;28;20127;-75
2022/04/02 06:26:32;;;;;;;12.68;3.40;;;;;;;-141.50;100.00;63355.56;5088786;28;20127;-77
2022/04/02 06:28:59;;;;;;;11.70;3.10;;;;;;;-141.50;100.00;63355.56;5090794;28;20112;-76
2022/04/02 06:31:26;;;;;;;8.60;3.28;;;;;;;-141.50;100.00;63355.56;5088678;28;20048;-76
2022/04/02 06:33:53;;;;;;;11.23;3.67;;;;;;;-141.50;100.00;63355.56;5090206;28;20527;-76
2022/04/02 06:36:21;;;;;;;10.70;3.35;;;;;;;-141.50;100.00;63355.56;5090377;28;20473;-75
2022/04/02 06:38:49;;;;;;;13.15;3.63;;;;;;;-141.50;100.00;63355.56;5090810;28;20189;-76
2022/04/02 06:41:15;;;;;;;14.80;4.32;;;;;;;-141.50;100.00;63355.56;5089814;28;20055;-76
2022/04/02 06:43:42;;;;;;;9.85;4.03;;;;;;;-141.50;100.00;63355.56;5089710;28;20538;-75
2022/04/02 06:46:08;;;;;;;8.35;3.47;;;;;;;-141.50;100.00;63355.56;5090214;28;20052;-76
2022/04/02 06:48:35;;;;;;;12.05;3.42;;;;;;;-141.50;100.00;63355.56;5089657;28;20463;-76
2022/04/02 06:51:02;;;;;;;11.57;3.55;;;;;;;-141.50;100.00;63355.56;5088664;28;20146;-77
2022/04/02 06:53:28;;;;;;;9.70;3.60;;;;;;;-141.50;100.00;63355.56;5089669;28;20055;-77
2022/04/02 06:55:55;;;;;;;14.93;3.60;;;;;;;-141.50;100.00;63355.56;5088912;28;20151;-76
2022/04/02 06:58:27;;;;;;;8.23;3.50;;;;;;;-141.50;100.00;63355.56;5089129;28;20475;-77
2022/04/02 07:00:54;;;;;;;7.88;3.90;;;;;;;-141.50;100.00;63355.56;5087937;28;20044;-76
2022/04/02 07:03:20;;;;;;;8.10;3.15;;;;;;;-141.50;100.00;63355.56;5088097;28;20126;-75
2022/04/02 07:05:47;;;;;;;8.23;3.67;;;;;;;-141.50;100.00;63355.56;5070874;28;20048;-76
2022/04/02 07:08:13;;;;;;;9.68;3.65;;;;;;;-141.50;100.00;63355.56;5092274;28;20090;-77
2022/04/02 07:10:40;;;;;;;11.40;3.95;;;;;;;-141.50;100.00;63355.56;5074422;28;20143;-76
2022/04/02 07:13:07;;;;;;;10.23;3.80;;;;;;;-141.50;100.00;63355.56;5097254;28;20096;-78
2022/04/02 07:15:33;;;;;;;9.70;4.43;;;;;;;-141.50;100.00;63355.56;5111918;28;20048;-77
2022/04/02 07:18:06;;;;;;;10.48;3.65;;;;;;;-141.50;100.00;63355.56;5113836;28;20119;-77
2022/04/02 07:20:35;;;;;;;10.95;3.58;;;;;;;-141.50;100.00;63355.56;5113622;28;20086;-77
2022/04/02 07:23:09;;;;;;;12.63;3.50;;;;;;;-141.50;100.00;63355.56;5126542;28;20069;-76
2022/04/02 07:25:40;;;;;;;11.57;3.55;;;;;;;-141.50;100.00;63355.56;5126411;28;20138;-77
2022/04/02 07:28:08;;;;;;;10.93;3.45;;;;;;;-141.50;100.00;63355.56;5125006;28;20073;-76
2022/04/02 07:30:37;;;;;;;11.73;5.40;;;;;;;-141.50;100.00;63355.56;5126350;28;20191;-77
2022/04/02 07:33:04;;;;;;;15.77;4.53;;;;;;;-141.50;100.00;63355.56;5129811;28;20304;-76
2022/04/02 07:35:51;;;;;;;12.02;5.10;;;;;;;-141.50;100.00;63355.56;5117463;28;20105;-76
2022/04/02 07:38:28;;;;;;;10.05;4.10;;;;;;;-141.50;100.00;63355.56;5114958;28;20497;-76
2022/04/02 07:41:04;;;;;;;11.57;4.00;;;;;;;-141.50;100.00;63355.56;5112521;28;20047;-76
2022/04/02 07:43:41;;;;;;;8.68;3.58;;;;;;;-141.50;100.00;63355.56;5112494;28;20051;-76
2022/04/02 07:46:14;;;;;;;7.35;3.92;;;;;;;-141.50;100.00;63355.56;5093118;28;20570;-76
2022/04/02 07:48:43;;;;;;;9.63;4.28;;;;;;;-141.50;100.00;63355.56;5114148;28;20047;-74
2022/04/02 07:51:12;;;;;;;11.93;4.40;;;;;;;-141.50;100.00;63355.56;5113307;28;20048;-77
2022/04/02 07:53:47;;;;;;;11.00;3.75;;;;;;;-141.50;100.00;63355.56;5112348;28;20488;-77
2022/04/02 07:56:18;;;;;;;8.88;3.25;;;;;;;-141.50;100.00;63355.56;5112763;28;20047;-77
2022/04/02 07:58:50;;;;;;;7.47;2.78;;;;;;;-141.50;100.00;63355.56;5112727;28;20419;-75
2022/04/02 08:01:18;;;;;;;16.40;3.78;;;;;;;-141.50;100.00;63355.56;5111617;28;20105;-76
2022/04/02 08:03:46;;;;;;;12.73;3.60;;;;;;;-141.50;100.00;63355.56;5093558;28;20044;-76
2022/04/02 08:06:16;;;;;;;8.70;3.53;;;;;;;-141.50;100.00;63355.56;5112304;28;20127;-76
2022/04/02 08:08:43;;;;;;;8.25;3.00;;;;;;;-141.50;100.00;63355.56;5112000;28;20089;-76
2022/04/02 08:11:10;;;;;;;9.45;3.90;;;;;;;-141.50;100.00;63355.56;5103521;28;20497;-75
2022/04/02 08:13:38;;;;;;;8.23;3.42;;;;;;;-141.50;100.00;63355.56;5089512;28;20480;-76
2022/04/02 08:16:04;;;;;;;9.00;3.70;;;;;;;-141.50;100.00;63355.56;5092696;28;20194;-77
2022/04/02 08:18:32;;;;;;;9.93;4.40;;;;;;;-141.50;100.00;63355.56;5110986;28;20478;-76
2022/04/02 08:20:58;;;;;;;11.65;3.42;;;;;;;-141.50;100.00;63355.56;5110673;28;20136;-76
2022/04/02 08:23:25;;;;;;;10.05;3.13;;;;;;;-141.50;100.00;63355.56;5112841;28;20039;-76
2022/04/02 08:26:29;;;;;;;7.53;2.63;;;;;;;-141.50;100.00;63355.56;5111999;28;20055;-76
2022/04/02 08:29:33;;;;;;;8.93;3.35;;;;;;;-141.50;100.00;63355.56;5092071;28;20560;-76
2022/04/02 08:32:14;;;;;;;8.50;3.70;;;;;;;-141.50;100.00;63355.56;5110641;28;20048;-75
2022/04/02 08:34:59;;;;;;;9.00;3.45;;;;;;;-141.50;100.00;63355.56;5111828;28;20043;-77
2022/04/02 08:37:37;;;;;;;7.05;2.65;;;;;;;-141.50;100.00;63355.56;5112373;28;20047;-78
2022/04/02 08:40:43;;;;;;;10.23;3.03;;;;;;;-141.50;100.00;63355.56;5111059;28;20138;-76
2022/04/02 08:43:30;;;;;;;9.45;2.50;;;;;;;-141.50;100.00;63355.56;5111250;28;20497;-75
2022/04/02 08:46:36;;;;;;;10.13;2.97;;;;;;;-141.50;100.00;63355.56;5110930;28;20089;-77
2022/04/02 08:49:38;;;;;;;7.68;2.67;;;;;;;-141.50;100.00;63355.56;5094656;28;20051;-77
2022/04/02 08:52:13;;;;;;;10.32;3.70;;;;;;;-141.50;100.00;63355.56;5094625;28;20055;-76
2022/04/02 08:54:50;;;;;;;9.73;2.67;;;;;;;-141.50;100.00;63355.56;5095872;28;20049;-76
2022/04/02 08:57:41;;;;;;;8.20;2.80;;;;;;;-141.50;100.00;63355.56;5115360;28;20090;-76
2022/04/02 09:00:12;;;;;;;8.55;3.13;;;;;;;-141.50;100.00;63355.56;5095409;28;20504;-77
2022/04/02 09:03:17;;;;;;;11.52;3.78;;;;;;;-141.50;100.00;63355.56;5113408;28;20052;-77
2022/04/02 09:06:06;;;;;;;7.55;2.50;;;;;;;-141.50;100.00;63355.56;5115532;28;20047;-76
2022/04/02 09:08:57;;;;;;;10.35;2.80;;;;;;;-141.50;100.00;63355.56;5091788;28;20126;-75
2022/04/02 09:11:24;;;;;;;6.35;2.17;;;;;;;-141.50;100.00;63355.56;5102929;28;20487;-77
2022/04/02 09:14:32;;;;;;;8.25;2.75;;;;;;;-141.50;100.00;63355.56;5091766;28;20432;-76
2022/04/02 09:17:35;;;;;;;8.63;2.70;;;;;;;-141.50;100.00;63355.56;5067224;28;20156;-77
2022/04/02 09:20:34;;;;;;;16.65;6.15;;;;;;;-141.50;100.00;63355.56;5087994;28;20088;-75
2022/04/02 09:23:11;;;;;;;10.82;2.88;;;;;;;-141.50;100.00;63355.56;5086955;28;20070;-76
2022/04/02 09:25:38;;;;;;;5.90;2.95;;;;;;;-141.50;100.00;63355.56;5094157;28;20078;-76
2022/04/02 09:28:42;;;;;;;7.68;3.47;;;;;;;-141.50;100.00;63355.56;5084554;28;20047;-76
2022/04/02 09:31:08;;;;;;;8.38;2.30;;;;;;;-141.50;100.00;63355.56;5066244;28;20067;-74
2022/04/02 09:33:54;;;;;;;10.82;3.83;;;;;;;-141.50;100.00;63355.56;5075487;28;20052;-77
2022/04/02 09:36:42;;;;;;;7.40;2.58;;;;;;;-141.50;100.00;63355.56;5090118;28;20060;-78
2022/04/02 09:39:23;;;;;;;5.45;2.50;;;;;;;-141.50;100.00;63355.56;5088028;28;20066;-77
2022/04/02 09:41:52;;;;;;;6.47;2.55;;;;;;;-141.50;100.00;63355.56;5086777;28;20052;-78
2022/04/02 09:44:34;;;;;;;10.30;3.47;;;;;;;-141.50;100.00;63355.56;5103767;28;20048;-78
2022/04/02 09:47:18;;;;;;;9.50;3.70;;;;;;;-141.50;100.00;63355.56;5100422;28;20054;-76
2022/04/02 09:50:10;;;;;;;13.70;3.47;;;;;;;-141.50;100.00;63355.56;5086816;28;20477;-78
2022/04/02 09:52:53;;;;;;;7.50;3.17;;;;;;;-141.50;100.00;63355.56;5084705;28;20048;-76
2022/04/02 09:55:37;;;;;;;5.95;2.80;;;;;;;-141.50;100.00;63355.56;5084952;28;20139;-76
2022/04/02 09:58:22;;;;;;;4.70;2.30;;;;;;;-141.50;100.00;63355.56;5085803;28;20071;-74
2022/04/02 10:01:06;;;;;;;5.50;2.33;;;;;;;-141.50;100.00;63355.56;5084387;28;20077;-77
2022/04/02 10:03:40;;;;;;;6.95;2.40;;;;;;;-141.50;100.00;63355.56;5102296;28;20550;-76
2022/04/02 10:06:07;;;;;;;7.18;2.47;;;;;;;-141.50;100.00;63355.56;5085054;28;20056;-77
2022/04/02 10:08:56;;;;;;;7.43;2.75;;;;;;;-141.50;100.00;63355.56;5086490;28;20095;-77
2022/04/02 10:11:28;;;;;;;10.70;2.97;;;;;;;-141.50;100.00;63355.56;5097509;28;20051;-77
2022/04/02 10:13:59;;;;;;;3.88;2.30;;;;;;;-141.50;100.00;63355.56;5104839;28;20168;-77
2022/04/02 10:16:27;;;;;;;6.07;2.60;;;;;;;-141.50;100.00;63355.56;5105741;28;20134;-77
2022/04/02 10:18:58;;;;;;;5.88;2.10;;;;;;;-141.50;100.00;63355.56;5091567;28;20462;-77
2022/04/02 10:21:27;;;;;;;13.77;3.63;;;;;;;-141.50;100.00;63355.56;5084858;28;20159;-77
2022/04/02 10:24:05;;;;;;;13.25;5.75;;;;;;;-141.50;100.00;63355.56;5084495;28;20162;-74
2022/04/02 10:26:39;;;;;;;5.03;2.20;;;;;;;-141.50;100.00;63355.56;5085359;28;20052;-77
2022/04/02 10:29:13;;;;;;;7.93;3.05;;;;;;;-141.50;100.00;63355.56;5085752;28;20107;-77
2022/04/02 10:32:27;;;;;;;5.18;2.58;;;;;;;-141.50;100.00;63355.56;5073951;28;20071;-77
2022/04/02 10:34:54;;;;;;;5.53;2.05;;;;;;;-141.50;100.00;63355.56;5017025;28;20129;-75
2022/04/02 10:37:27;;;;;;;7.05;2.03;;;;;;;-141.50;100.00;63355.56;5027702;28;20520;-75
2022/04/02 10:40:01;;;;;;;4.00;2.33;;;;;;;-141.50;100.00;63355.56;5056732;28;20089;-76
2022/04/02 10:42:34;;;;;;;4.55;1.80;;;;;;;-141.50;100.00;63355.56;5080332;28;20087;-76
2022/04/02 10:45:05;;;;;;;7.47;1.90;;;;;;;-141.50;100.00;63355.56;5082638;28;20059;-76
2022/04/02 10:47:38;;;;;;;6.80;2.10;;;;;;;-141.50;100.00;63355.56;5111733;28;20103;-77
2022/04/02 10:50:08;;;;;;;4.28;1.95;;;;;;;-141.50;100.00;63355.56;5114437;28;20048;-76
2022/04/02 10:52:35;;;;;;;6.00;1.92;;;;;;;-141.50;100.00;63355.56;5092758;28;20411;-77
2022/04/02 10:55:03;;;;;;;5.80;2.80;;;;;;;-141.50;100.00;63355.56;5099050;28;20048;-75
2022/04/02 10:57:32;;;;;;;5.82;2.42;;;;;;;-141.50;100.00;63355.56;5103456;28;20475;-76
2022/04/02 11:00:04;;;;;;;5.43;2.08;;;;;;;-141.50;100.00;63355.56;5101959;28;20055;-76
2022/04/02 11:02:42;;;;;;;6.43;2.08;;;;;;;-141.50;100.00;63355.56;5112205;28;20063;-77
2022/04/02 11:05:14;;;;;;;8.80;2.05;;;;;;;-141.50;100.00;63355.56;5095543;28;20461;-77
2022/04/02 11:07:43;;;;;;;6.07;2.22;;;;;;;-141.50;100.00;63355.56;5085880;28;20080;-76
2022/04/02 11:10:15;;;;;;;4.05;2.10;;;;;;;-141.50;100.00;63355.56;5090143;28;20051;-77
2022/04/02 11:12:44;;;;;;;6.15;2.42;;;;;;;-141.50;100.00;63355.56;5095345;28;20052;-78
2022/04/02 11:15:22;;;;;;;3.70;1.90;;;;;;;-141.50;100.00;63355.56;5085846;28;20052;-77
2022/04/02 11:17:55;;;;;;;4.60;2.00;;;;;;;-141.50;100.00;63355.56;5085768;28;20052;-78
2022/04/02 11:20:32;;;;;;;5.38;2.10;;;;;;;-141.50;100.00;63355.56;5085730;28;20139;-76
2022/04/02 11:23:20;;;;;;;14.68;4.97;;;;;;;-141.50;100.00;63355.56;5067753;28;20063;-77
2022/04/02 11:25:54;;;;;;;6.70;3.03;;;;;;;-141.50;100.00;63355.56;5100662;28;20102;-76
2022/04/02 11:28:23;;;;;;;6.50;2.50;;;;;;;-141.50;100.00;63355.56;5107471;28;20056;-76
2022/04/02 11:31:05;;;;;;;5.95;1.92;;;;;;;-141.50;100.00;63355.56;5087571;28;20083;-77